Bowling Green, Indiana
Current Conditions -  °F | °C
As of 3:53 PM on Saturday 25 Oct 2014 (Local Time) from KHUF Reporting Station
Clear Clear  
Wind Chill: 78°   Ceiling: Unl
Heat Index: 79°   Visibility: 10mi
Dew Point: 49°   Wind: 9mph
Humidity: 36%   Direction: 290°WNW
Pressure: 29.96"   Gusts: NA
Location:  39.38°N, 87.01°W
Report Text: KHUF 251953Z 29008KT 10SM CLR 26/09 A2996 RMK AO2 SLP143 T02560094
Loading
Personal Weather Stations






























Interactive Weather Map
Tropical Storm Tracking
New forecast layout! Learn more

10-Day Weather Forecast

Advertisements
Track Severe Weather on mobile